Disclaimer

Please do not use the information listed here in-flight or in-navigation, as they are not provided to us by the airports but are provided by volunteers, so they might be outdated.

Search


Regions


Airport information page

Radio informations:
Tower (TWR) - 122.1 MHz
Approach (APP) - 122.1 MHz
RDO - 5637 MHz

Airport informations:
Latitude: 37° 41' 24.00" N
Longitude: 026° 54' 42.00" E
Elevation: 19 feet - 6 meters
Operating hours: Remarks
Operating agency: Civil government, landing fees and diplomatic clearance may be required
Timezone: UTC+2(+3DT) - Last Sunday in March to last Sunday in October
Fuel: Jet A1, without icing nhibitor.

Runway information:
09/27 - 6706 x 148 feet< - >2044 x 45 meters

Recent METARs:
LGSM 181750Z 17013KT 9999 FEW014 SCT025 18/15 Q1013
LGSM 181750Z 17013KT 9999 FEW014 SCT025 18/15 Q1013
LGSM 181750Z 17013KT 9999 FEW014 SCT025 18/15 Q1013

Airport on the map: